Time;durP1;ratioP1;P1;durP2;ratioP2;P2;SDS_P1;SDS_P2;PMS_P1;PMS_P2;Temp;Humidity;BMP_temperature;BMP_pressure;BME280_temperature;BME280_humidity;BME280_pressure;Samples;Min_cycle;Max_cycle;Signal;HPM_P1;HPM_P2
2021/03/24 00:01:23;;;;;;;90.35;45.10;;;;;;;4.68;74.60;101365.63;1755797;81;21143;-76
2021/03/24 00:03:51;;;;;;;54.45;30.10;;;;;;;4.68;74.62;101370.92;1756232;81;21148;-75
2021/03/24 00:06:17;;;;;;;53.28;31.20;;;;;;;4.67;74.65;101365.29;1724623;83;21171;-75
2021/03/24 00:08:43;;;;;;;42.48;22.80;;;;;;;4.66;74.64;101364.06;1756454;81;21123;-75
2021/03/24 00:11:10;;;;;;;45.40;23.25;;;;;;;4.65;74.68;101365.01;1753889;80;21573;-75
2021/03/24 00:13:36;;;;;;;39.85;20.20;;;;;;;4.65;74.69;101368.97;1754180;81;21120;-75
2021/03/24 00:16:03;;;;;;;44.50;22.22;;;;;;;4.64;74.72;101372.11;1753902;81;21115;-75
2021/03/24 00:18:30;;;;;;;45.80;21.25;;;;;;;4.64;74.73;101371.27;1753997;81;21115;-75
2021/03/24 00:20:56;;;;;;;51.73;25.65;;;;;;;4.64;74.76;101371.27;1754055;81;21155;-75
2021/03/24 00:23:22;;;;;;;48.90;25.17;;;;;;;4.63;74.79;101366.92;1754277;81;21372;-75
2021/03/24 00:25:48;;;;;;;60.15;31.52;;;;;;;4.62;74.82;101370.52;1754084;81;21080;-75
2021/03/24 00:28:15;;;;;;;41.63;20.60;;;;;;;4.61;74.83;101371.48;1754069;81;21127;-75
2021/03/24 00:30:44;;;;;;;37.60;17.00;;;;;;;4.61;74.86;101372.81;1754196;81;21116;-75
2021/03/24 00:33:17;;;;;;;33.67;16.73;;;;;;;4.60;74.89;101368.47;1753972;81;21155;-75
2021/03/24 00:35:44;;;;;;;30.70;18.15;;;;;;;4.58;74.89;101363.28;1753827;81;21200;-75
2021/03/24 00:38:10;;;;;;;37.10;22.25;;;;;;;4.59;74.94;101369.41;1754025;80;21573;-75
2021/03/24 00:40:40;;;;;;;38.28;17.35;;;;;;;4.60;74.97;101364.50;1754076;81;21142;-75
2021/03/24 00:43:07;;;;;;;32.20;16.87;;;;;;;4.61;74.99;101367.52;1754225;81;21107;-75
2021/03/24 00:45:34;;;;;;;34.85;15.58;;;;;;;4.59;75.03;101369.41;1754006;81;21592;-75
2021/03/24 00:48:01;;;;;;;27.48;15.38;;;;;;;4.57;75.05;101367.37;1754050;80;21281;-75
2021/03/24 00:50:28;;;;;;;27.58;15.32;;;;;;;4.56;75.06;101365.20;1753889;81;21135;-75
2021/03/24 00:52:55;;;;;;;30.77;14.50;;;;;;;4.57;75.09;101366.89;1754236;81;21529;-75
2021/03/24 00:55:21;;;;;;;30.65;13.83;;;;;;;4.57;75.11;101368.69;1753970;81;21826;-75
2021/03/24 00:57:47;;;;;;;28.25;13.55;;;;;;;4.58;75.13;101363.75;1754089;80;21084;-75
2021/03/24 01:00:22;;;;;;;28.42;13.85;;;;;;;4.54;75.19;101363.97;1754097;81;21212;-75
2021/03/24 01:02:48;;;;;;;26.25;13.28;;;;;;;4.53;75.21;101362.30;1753079;81;21822;-75
2021/03/24 01:05:17;;;;;;;25.72;13.55;;;;;;;4.52;75.25;101363.25;1754092;81;21188;-75
2021/03/24 01:07:46;;;;;;;27.73;14.33;;;;;;;4.52;75.26;101363.72;1754104;81;21553;-75
2021/03/24 01:10:25;;;;;;;26.73;13.30;;;;;;;4.51;75.28;101363.34;1754476;81;21179;-75
2021/03/24 01:12:52;;;;;;;36.20;14.50;;;;;;;4.50;75.33;101360.35;1745684;81;21217;-74
2021/03/24 01:15:18;;;;;;;27.77;13.18;;;;;;;4.50;75.34;101361.67;1753938;80;21155;-75
2021/03/24 01:17:45;;;;;;;24.20;12.85;;;;;;;4.48;75.42;101356.48;1754182;81;21116;-75
2021/03/24 01:20:12;;;;;;;26.02;12.10;;;;;;;4.47;75.44;101354.79;1754138;81;21131;-75
2021/03/24 01:22:39;;;;;;;23.75;12.78;;;;;;;4.47;75.45;101362.71;1754231;81;21785;-75
2021/03/24 01:25:07;;;;;;;30.43;14.75;;;;;;;4.46;75.48;101362.36;1754159;81;21285;-75
2021/03/24 01:27:33;;;;;;;30.32;14.75;;;;;;;4.49;75.50;101358.19;1754277;81;21155;-75
2021/03/24 01:29:59;;;;;;;31.27;17.52;;;;;;;4.50;75.53;101361.17;1753960;81;21152;-75
2021/03/24 01:32:25;;;;;;;50.95;25.55;;;;;;;4.51;75.57;101357.59;1754251;81;21119;-75
2021/03/24 01:34:52;;;;;;;30.90;15.43;;;;;;;4.52;75.60;101354.00;1754306;81;21143;-75
2021/03/24 01:37:18;;;;;;;26.33;12.75;;;;;;;4.54;75.61;101356.52;1754014;81;22123;-75
2021/03/24 01:39:44;;;;;;;22.05;11.65;;;;;;;4.52;75.64;101355.33;1754316;81;21144;-75
2021/03/24 01:42:11;;;;;;;21.85;12.23;;;;;;;4.50;75.66;101359.84;1754020;81;21163;-75
2021/03/24 01:45:03;;;;;;;24.30;12.35;;;;;;;4.48;75.70;101351.20;1754005;81;21194;-75
2021/03/24 01:47:29;;;;;;;21.33;12.43;;;;;;;4.46;75.73;101353.13;1738299;82;21188;-75
2021/03/24 01:49:56;;;;;;;29.42;13.70;;;;;;;4.44;75.75;101351.05;1724170;80;21203;-75
2021/03/24 01:52:22;;;;;;;29.50;13.32;;;;;;;4.43;75.78;101344.06;1730631;81;21140;-75
2021/03/24 01:54:49;;;;;;;28.23;13.70;;;;;;;4.41;75.82;101343.34;1753805;81;21151;-75
2021/03/24 01:57:26;;;;;;;30.48;14.23;;;;;;;4.40;75.84;101341.64;1753985;81;21159;-75
2021/03/24 01:59:53;;;;;;;30.97;12.43;;;;;;;4.38;75.89;101347.52;1753768;81;21581;-75
2021/03/24 02:02:27;;;;;;;31.17;14.73;;;;;;;4.39;75.92;101344.41;1753303;81;21211;-75
2021/03/24 02:04:53;;;;;;;35.92;21.12;;;;;;;4.39;75.93;101351.01;1728365;82;21220;-75
2021/03/24 02:07:33;;;;;;;40.83;26.50;;;;;;;4.39;75.95;101351.01;1725851;83;21144;-75
2021/03/24 02:10:11;;;;;;;31.12;16.73;;;;;;;4.39;75.97;101347.05;1726040;82;26811;-75
2021/03/24 02:12:54;;;;;;;28.38;16.10;;;;;;;4.38;76.00;101341.39;1725970;83;21134;-75
2021/03/24 02:15:33;;;;;;;29.72;14.10;;;;;;;4.37;76.03;101347.14;1725897;83;21230;-75
2021/03/24 02:18:00;;;;;;;31.07;14.17;;;;;;;4.37;76.08;101347.14;1730772;82;21569;-75
2021/03/24 02:20:46;;;;;;;23.98;11.95;;;;;;;4.36;76.12;101346.77;1750912;82;21249;-75
2021/03/24 02:23:18;;;;;;;28.35;12.45;;;;;;;4.37;76.15;101351.58;1750929;82;21439;-75
2021/03/24 02:25:53;;;;;;;26.15;13.22;;;;;;;4.37;76.18;101361.66;1750940;82;21159;-75
2021/03/24 02:28:20;;;;;;;28.32;13.48;;;;;;;4.37;76.19;101359.02;1751004;82;22284;-75
2021/03/24 02:30:47;;;;;;;36.77;16.27;;;;;;;4.39;76.24;101365.06;1750830;82;21180;-75
2021/03/24 02:33:19;;;;;;;39.15;21.02;;;;;;;4.39;76.27;101362.42;1747648;81;21116;-74
2021/03/24 02:35:48;;;;;;;28.15;14.23;;;;;;;4.40;76.28;101364.09;1756398;81;21148;-74
2021/03/24 02:38:15;;;;;;;26.75;13.15;;;;;;;4.38;76.32;101363.36;1756410;80;21525;-75
2021/03/24 02:40:42;;;;;;;27.13;14.23;;;;;;;4.39;76.33;101370.34;1724618;83;21211;-75
2021/03/24 02:43:08;;;;;;;25.95;13.70;;;;;;;4.40;76.39;101370.69;1729114;81;21171;-75
2021/03/24 02:45:38;;;;;;;31.82;14.95;;;;;;;4.37;76.44;101368.27;1762040;81;21131;-75
2021/03/24 02:48:09;;;;;;;26.48;13.20;;;;;;;4.36;76.45;101370.53;1762356;81;28219;-75
2021/03/24 02:50:37;;;;;;;28.02;13.50;;;;;;;4.36;76.48;101366.56;1761825;81;21127;-75
2021/03/24 02:53:03;;;;;;;27.35;13.28;;;;;;;4.37;76.51;101360.34;1762336;81;21241;-75
2021/03/24 02:55:29;;;;;;;26.27;12.60;;;;;;;4.36;76.52;101357.33;1762056;81;21123;-75
2021/03/24 02:57:56;;;;;;;25.43;12.58;;;;;;;4.32;76.54;101355.87;1712495;81;21142;-75
2021/03/24 03:00:23;;;;;;;28.20;13.40;;;;;;;4.30;76.55;101360.41;1761982;81;21142;-75
2021/03/24 03:02:53;;;;;;;29.35;17.10;;;;;;;4.30;76.61;101359.55;1762226;80;21122;-75
2021/03/24 03:05:29;;;;;;;24.63;12.78;;;;;;;4.31;76.61;101359.46;1762184;81;21276;-75
2021/03/24 03:08:18;;;;;;;27.52;12.20;;;;;;;4.29;76.63;101358.70;1761779;80;21529;-75
2021/03/24 03:11:20;;;;;;;32.28;17.05;;;;;;;4.29;76.68;101358.70;1762333;80;21139;-75
2021/03/24 03:13:58;;;;;;;32.85;15.45;;;;;;;4.31;76.72;101364.74;1762077;81;21115;-76
2021/03/24 03:16:47;;;;;;;34.38;15.78;;;;;;;4.31;76.75;101355.50;1761905;80;21106;-75
2021/03/24 03:19:33;;;;;;;27.85;12.85;;;;;;;4.32;76.77;101344.47;1729945;81;21163;-75
2021/03/24 03:22:12;;;;;;;31.00;13.30;;;;;;;4.32;76.78;101351.92;1762004;81;21559;-75
2021/03/24 03:24:44;;;;;;;28.25;15.38;;;;;;;4.30;76.81;101351.16;1762273;81;21139;-75
2021/03/24 03:27:12;;;;;;;41.13;17.92;;;;;;;4.32;76.85;101353.23;1762243;81;21553;-76
2021/03/24 03:29:40;;;;;;;23.15;13.15;;;;;;;4.34;76.87;101353.96;1761871;81;21098;-75
2021/03/24 03:32:07;;;;;;;29.57;17.10;;;;;;;4.32;76.90;101347.95;1762173;81;21536;-74
2021/03/24 03:34:33;;;;;;;48.98;33.10;;;;;;;4.33;76.92;101353.58;1761982;81;21440;-75
2021/03/24 03:36:59;;;;;;;41.50;26.00;;;;;;;4.35;76.94;101353.02;1762286;80;21127;-75
2021/03/24 03:39:27;;;;;;;22.50;13.58;;;;;;;4.37;76.94;101347.14;1762086;81;21548;-75
2021/03/24 03:41:54;;;;;;;25.30;12.53;;;;;;;4.37;76.93;101347.61;1762188;81;21138;-75
2021/03/24 03:44:20;;;;;;;25.15;12.58;;;;;;;4.37;76.96;101343.18;1729068;81;21183;-75
2021/03/24 03:46:50;;;;;;;22.48;12.28;;;;;;;4.37;77.00;101347.14;1756113;81;21123;-75
2021/03/24 03:49:17;;;;;;;23.35;12.00;;;;;;;4.34;77.02;101338.12;1724909;83;21109;-75
2021/03/24 03:52:04;;;;;;;24.77;13.03;;;;;;;4.34;77.03;101341.23;1756224;81;21139;-75
2021/03/24 03:54:37;;;;;;;27.15;12.07;;;;;;;4.32;77.07;101337.39;1724649;83;21167;-75
2021/03/24 03:57:29;;;;;;;24.98;12.80;;;;;;;4.32;77.07;101337.39;1756392;81;21210;-74
2021/03/24 04:00:33;;;;;;;21.12;12.40;;;;;;;4.31;77.11;101338.34;1724257;83;21171;-75
2021/03/24 04:03:11;;;;;;;21.15;12.07;;;;;;;4.35;77.13;101343.78;1756250;81;21526;-76
2021/03/24 04:05:49;;;;;;;21.62;11.03;;;;;;;4.36;77.14;101342.80;1690097;83;21147;-75
2021/03/24 04:08:25;;;;;;;23.50;12.28;;;;;;;4.31;77.16;101343.62;1752400;81;21123;-75
2021/03/24 04:10:54;;;;;;;24.77;12.07;;;;;;;4.30;77.19;101334.00;1756351;81;21189;-75
2021/03/24 04:13:22;;;;;;;21.50;13.10;;;;;;;4.30;77.17;101332.68;1724714;83;21163;-75
2021/03/24 04:15:56;;;;;;;27.15;13.22;;;;;;;4.27;77.19;101335.53;1749599;81;21210;-75
2021/03/24 04:18:35;;;;;;;28.47;12.73;;;;;;;4.28;77.22;101335.91;1756160;81;21155;-75
2021/03/24 04:21:01;;;;;;;28.20;13.25;;;;;;;4.28;77.23;101339.03;1724416;83;21239;-74
2021/03/24 04:23:31;;;;;;;30.00;13.28;;;;;;;4.25;77.25;101344.52;1756441;81;22672;-75
2021/03/24 04:26:13;;;;;;;24.85;12.35;;;;;;;4.25;77.24;101344.05;1724441;83;21720;-75
2021/03/24 04:28:43;;;;;;;31.25;13.53;;;;;;;4.24;77.26;101345.47;1756078;81;21139;-76
2021/03/24 04:31:11;;;;;;;27.60;12.78;;;;;;;4.22;77.28;101356.63;1724429;83;21120;-75
2021/03/24 04:33:38;;;;;;;25.95;12.63;;;;;;;4.23;77.30;101346.41;1756392;81;21438;-75
2021/03/24 04:36:19;;;;;;;23.90;13.00;;;;;;;4.24;77.31;101351.59;1724653;83;21363;-75
2021/03/24 04:38:52;;;;;;;31.35;12.53;;;;;;;4.26;77.33;101352.32;1737707;81;21099;-75
2021/03/24 04:41:30;;;;;;;24.40;11.95;;;;;;;4.28;77.33;101350.44;1697169;83;21208;-75
2021/03/24 04:44:01;;;;;;;22.07;10.90;;;;;;;4.28;77.34;101357.03;1726844;81;21107;-75
2021/03/24 04:46:32;;;;;;;21.80;11.25;;;;;;;4.28;77.36;101353.08;1724267;82;21164;-75
2021/03/24 04:49:03;;;;;;;22.87;11.88;;;;;;;4.27;77.38;101355.34;1756205;81;22072;-75
2021/03/24 04:51:32;;;;;;;24.43;12.20;;;;;;;4.26;77.42;101351.00;1724594;83;21204;-75
2021/03/24 04:54:10;;;;;;;22.25;11.93;;;;;;;4.25;77.40;101351.97;1756616;81;21641;-75
2021/03/24 04:56:37;;;;;;;21.70;11.22;;;;;;;4.26;77.42;101350.16;1756355;81;21552;-75
2021/03/24 04:59:04;;;;;;;28.32;11.05;;;;;;;4.24;77.44;101360.84;1751563;81;21123;-75
2021/03/24 05:01:43;;;;;;;18.62;10.85;;;;;;;4.26;77.46;101364.20;1729586;83;21287;-75
2021/03/24 05:04:33;;;;;;;22.50;12.73;;;;;;;4.26;77.46;101358.92;1756212;81;21143;-74
2021/03/24 05:07:20;;;;;;;;;;;;;;;4.24;77.50;101363.48;1759151;81;21172;-75
2021/03/24 05:09:46;;;;;;;21.02;10.90;;;;;;;4.22;77.52;101362.72;1754350;81;20269;-75
2021/03/24 05:12:22;;;;;;;19.45;10.30;;;;;;;4.21;77.51;101363.69;1724745;83;21148;-75
2021/03/24 05:15:02;;;;;;;21.73;11.00;;;;;;;4.20;77.53;101363.31;1756405;81;21743;-75
2021/03/24 05:17:31;;;;;;;19.92;10.03;;;;;;;4.20;77.57;101363.78;1756357;81;21144;-75
2021/03/24 05:20:19;;;;;;;21.70;11.18;;;;;;;4.17;77.56;101362.20;1724773;83;26762;-75
2021/03/24 05:22:45;;;;;;;24.20;10.75;;;;;;;4.21;77.58;101370.29;1756222;81;21371;-75
2021/03/24 05:25:28;;;;;;;22.32;9.98;;;;;;;4.22;77.59;101366.67;1724788;81;21125;-75
2021/03/24 05:28:15;;;;;;;21.35;11.48;;;;;;;4.21;77.61;101374.25;1756407;81;21194;-75
2021/03/24 05:30:51;;;;;;;19.15;10.32;;;;;;;4.21;77.66;101378.21;1755986;81;21143;-75
2021/03/24 05:33:22;;;;;;;17.17;10.53;;;;;;;4.21;77.69;101370.77;1724760;82;21168;-75
2021/03/24 05:36:05;;;;;;;20.52;12.55;;;;;;;4.22;77.69;101371.95;1726455;81;21175;-75
2021/03/24 05:38:45;;;;;;;23.67;14.03;;;;;;;4.22;77.70;101373.28;1724749;81;21176;-75
2021/03/24 05:41:25;;;;;;;27.75;11.97;;;;;;;4.24;77.75;101370.08;1758529;81;21206;-75
2021/03/24 05:44:28;;;;;;;26.45;14.63;;;;;;;4.26;77.74;101372.59;1751142;81;21637;-75
2021/03/24 05:47:32;;;;;;;25.32;13.38;;;;;;;4.26;77.78;101372.12;1754240;81;21120;-75
2021/03/24 05:50:42;;;;;;;22.90;12.33;;;;;;;4.28;77.81;101375.52;1754231;81;21223;-75
2021/03/24 05:53:33;;;;;;;23.38;12.03;;;;;;;4.30;77.85;101378.03;1738466;81;27056;-75
2021/03/24 05:56:13;;;;;;;21.17;12.90;;;;;;;4.29;77.85;101374.55;1753439;81;21216;-74
2021/03/24 05:59:26;;;;;;;18.60;11.28;;;;;;;4.31;77.89;101374.45;1754067;81;21196;-75
2021/03/24 06:01:56;;;;;;;20.40;11.43;;;;;;;4.31;77.90;101377.94;1753605;81;21120;-75
2021/03/24 06:04:47;;;;;;;20.40;11.73;;;;;;;4.31;77.90;101376.63;1760465;81;21139;-75
2021/03/24 06:07:44;;;;;;;27.13;12.70;;;;;;;4.33;77.95;101381.30;1726169;83;21537;-75
2021/03/24 06:10:28;;;;;;;29.52;12.65;;;;;;;4.33;77.97;101373.38;1734967;82;22113;-75
2021/03/24 06:13:27;;;;;;;22.58;11.95;;;;;;;4.37;77.97;101376.66;1761693;81;21489;-75
2021/03/24 06:16:18;;;;;;;24.00;11.33;;;;;;;4.40;77.99;101382.58;1706544;81;21048;-75
2021/03/24 06:19:14;;;;;;;20.45;11.18;;;;;;;4.42;78.01;101380.69;1729453;81;21127;-75
2021/03/24 06:21:49;;;;;;;20.45;11.60;;;;;;;4.43;78.02;101381.54;1761986;81;21107;-75
2021/03/24 06:24:26;;;;;;;21.75;11.55;;;;;;;4.44;78.05;101386.70;1761819;81;22107;-75
2021/03/24 06:27:20;;;;;;;27.27;10.72;;;;;;;4.45;78.04;101381.80;1729625;81;21164;-75
2021/03/24 06:30:15;;;;;;;18.37;10.60;;;;;;;4.49;78.06;101385.91;1738947;81;21127;-75
2021/03/24 06:33:04;;;;;;;20.92;10.88;;;;;;;4.52;78.08;101388.34;1761745;81;21155;-75
2021/03/24 06:35:54;;;;;;;24.67;11.00;;;;;;;4.55;78.11;101380.66;1712099;83;22121;-75
2021/03/24 06:38:38;;;;;;;22.98;11.93;;;;;;;4.58;78.11;101381.77;1762036;80;22045;-75
2021/03/24 06:41:48;;;;;;;24.43;12.90;;;;;;;4.60;78.15;101382.52;1729729;83;21625;-75
2021/03/24 06:44:20;;;;;;;22.00;12.85;;;;;;;4.62;78.20;101387.20;1759955;81;26405;-75
2021/03/24 06:47:04;;;;;;;25.85;13.48;;;;;;;4.65;78.21;101390.10;1724441;83;21231;-75
2021/03/24 06:49:44;;;;;;;26.48;12.93;;;;;;;4.68;78.23;101383.31;1756315;81;21147;-75
2021/03/24 06:52:54;;;;;;;27.65;12.70;;;;;;;4.68;78.26;101392.05;1724587;81;21575;-75
2021/03/24 06:55:46;;;;;;;26.68;12.88;;;;;;;4.69;78.26;101387.62;1755303;80;21623;-75
2021/03/24 06:58:58;;;;;;;25.32;14.95;;;;;;;4.70;78.23;101401.20;1724642;83;21545;-75
2021/03/24 07:01:49;;;;;;;25.00;13.40;;;;;;;4.74;78.23;101398.72;1755896;81;21144;-75
2021/03/24 07:04:50;;;;;;;30.23;14.15;;;;;;;4.75;78.21;101398.59;1753764;80;21124;-75
2021/03/24 07:08:02;;;;;;;24.37;12.68;;;;;;;4.76;78.19;101398.97;1744108;79;21544;-76
2021/03/24 07:11:12;;;;;;;24.10;12.03;;;;;;;4.79;78.17;101400.55;1753726;81;21533;-75
2021/03/24 07:13:55;;;;;;;26.25;12.58;;;;;;;4.82;78.15;101402.50;1719371;83;21192;-75
2021/03/24 07:16:45;;;;;;;25.25;13.05;;;;;;;4.85;78.13;101407.59;1782892;80;21116;-75
2021/03/24 07:19:45;;;;;;;21.97;11.05;;;;;;;4.89;78.14;101402.93;1791320;80;21565;-75
2021/03/24 07:22:38;;;;;;;24.47;11.95;;;;;;;4.95;78.14;101403.34;1791367;80;21263;-75
2021/03/24 07:25:48;;;;;;;20.25;12.03;;;;;;;4.99;78.15;101401.32;1788326;79;21144;-76
2021/03/24 07:28:35;;;;;;;23.18;12.47;;;;;;;5.07;78.17;101406.87;1764164;80;21584;-75
2021/03/24 07:31:30;;;;;;;24.60;13.15;;;;;;;5.13;78.17;101410.43;1763870;81;21194;-75
2021/03/24 07:34:25;;;;;;;24.05;13.40;;;;;;;5.24;78.19;101404.37;1805682;77;22827;-75
2021/03/24 07:37:27;;;;;;;24.85;13.15;;;;;;;5.22;78.20;101408.43;1714579;81;21137;-75
2021/03/24 07:40:02;;;;;;;26.17;16.15;;;;;;;5.31;78.18;101411.72;1728795;82;21260;-74
2021/03/24 07:43:03;;;;;;;22.60;14.95;;;;;;;5.37;78.16;101412.61;1696679;84;21224;-75
2021/03/24 07:46:11;;;;;;;26.93;13.55;;;;;;;5.44;78.12;101413.86;1706297;84;21168;-75
2021/03/24 07:49:00;;;;;;;30.65;14.98;;;;;;;5.47;78.09;101412.78;1703367;82;21553;-75
2021/03/24 07:51:57;;;;;;;34.00;15.78;;;;;;;5.48;78.05;101410.03;1686209;84;20998;-75
2021/03/24 07:54:44;;;;;;;33.25;17.48;;;;;;;5.51;78.02;101417.74;1675045;85;21217;-75
2021/03/24 07:57:35;;;;;;;30.48;18.73;;;;;;;5.59;77.99;101417.19;1664280;85;21221;-75
2021/03/24 08:00:16;;;;;;;30.75;17.00;;;;;;;5.64;77.92;101414.17;1688108;84;21148;-75
2021/03/24 08:02:59;;;;;;;26.50;17.30;;;;;;;5.68;77.90;101415.64;1675663;84;21121;-75
2021/03/24 08:05:31;;;;;;;25.90;15.60;;;;;;;5.74;77.84;101408.09;1703064;84;21156;-75
2021/03/24 08:08:21;;;;;;;30.10;16.55;;;;;;;5.79;77.79;101403.78;1702819;84;21214;-75
2021/03/24 08:10:56;;;;;;;40.40;15.58;;;;;;;5.81;77.75;101406.67;1700703;84;21168;-75
2021/03/24 08:13:44;;;;;;;24.52;14.15;;;;;;;5.84;77.70;101402.98;1697263;83;21555;-74
2021/03/24 08:16:39;;;;;;;31.57;15.63;;;;;;;5.88;77.66;101404.44;1682835;82;21227;-74
2021/03/24 08:19:46;;;;;;;23.85;15.25;;;;;;;5.94;77.60;101401.36;1686369;83;21219;-74
2021/03/24 08:22:54;;;;;;;25.62;17.70;;;;;;;6.01;77.55;101398.12;1690239;84;21266;-75
2021/03/24 08:25:46;;;;;;;30.80;18.23;;;;;;;6.10;77.55;101396.57;1692953;84;21204;-74
2021/03/24 08:28:36;;;;;;;24.23;14.98;;;;;;;6.18;77.51;101403.46;1670883;84;21171;-74
2021/03/24 08:31:32;;;;;;;23.42;15.50;;;;;;;6.26;77.46;101401.55;1689761;83;21184;-74
2021/03/24 08:34:26;;;;;;;38.15;20.50;;;;;;;6.35;77.40;101401.69;1687115;84;21682;-75
2021/03/24 08:37:41;;;;;;;69.40;43.58;;;;;;;6.42;77.33;101403.37;1681786;84;21280;-75
2021/03/24 08:40:18;;;;;;;34.67;20.97;;;;;;;6.44;77.29;101398.31;1684589;83;21649;-75
2021/03/24 08:43:14;;;;;;;31.95;18.67;;;;;;;6.48;77.19;101401.09;1685287;83;21206;-75
2021/03/24 08:46:16;;;;;;;31.52;17.77;;;;;;;6.50;77.11;101397.86;1677016;84;21160;-74
2021/03/24 08:49:17;;;;;;;28.73;17.70;;;;;;;6.53;77.00;101405.56;1689970;83;21196;-74
2021/03/24 08:51:55;;;;;;;28.20;18.00;;;;;;;6.62;76.86;101401.81;1684187;84;21219;-75
2021/03/24 08:54:39;;;;;;;28.42;16.93;;;;;;;6.67;76.80;101402.30;1692259;83;21223;-75
2021/03/24 08:57:14;;;;;;;25.43;16.93;;;;;;;6.72;76.69;101402.80;1696675;83;21170;-75
2021/03/24 08:59:42;;;;;;;33.23;19.20;;;;;;;6.78;76.58;101400.98;1686403;84;21196;-75
2021/03/24 09:02:36;;;;;;;41.92;27.17;;;;;;;6.81;76.50;101398.09;1691537;83;21218;-74
2021/03/24 09:05:26;;;;;;;46.13;27.82;;;;;;;6.90;76.40;101400.00;1644197;84;22206;-74
2021/03/24 09:08:29;;;;;;;38.58;23.52;;;;;;;6.99;76.29;101391.33;1692384;84;21186;-75
2021/03/24 09:11:12;;;;;;;53.00;30.25;;;;;;;7.00;76.15;101398.33;1700797;83;21605;-74
2021/03/24 09:13:56;;;;;;;45.92;26.87;;;;;;;7.06;76.07;101397.83;1692331;83;21225;-74
2021/03/24 09:17:06;;;;;;;38.25;21.95;;;;;;;7.12;75.96;101394.67;1685137;83;21232;-74
2021/03/24 09:19:57;;;;;;;39.08;23.42;;;;;;;7.15;75.83;101394.42;1697411;83;21254;-74
2021/03/24 09:22:41;;;;;;;36.95;23.40;;;;;;;7.21;75.67;101387.32;1686837;83;21565;-75
2021/03/24 09:25:38;;;;;;;31.87;19.98;;;;;;;7.24;75.51;101389.72;1693975;83;21184;-74
2021/03/24 09:28:27;;;;;;;31.02;20.25;;;;;;;7.28;75.40;101388.48;1690828;83;21140;-74
2021/03/24 09:31:18;;;;;;;37.23;21.60;;;;;;;7.36;75.21;101394.02;1689674;82;21144;-75
2021/03/24 09:33:49;;;;;;;34.78;21.45;;;;;;;7.37;75.06;101397.04;1692295;83;21164;-75
2021/03/24 09:36:47;;;;;;;34.50;21.57;;;;;;;7.41;74.93;101389.67;1687537;84;21219;-74
2021/03/24 09:39:36;;;;;;;33.28;19.55;;;;;;;7.46;74.79;101383.00;1684637;83;21531;-74
2021/03/24 09:42:13;;;;;;;37.55;22.40;;;;;;;7.56;74.65;101380.94;1694532;83;21192;-74
2021/03/24 09:44:57;;;;;;;33.40;22.02;;;;;;;7.63;74.44;101386.10;1692739;84;21164;-74
2021/03/24 09:47:59;;;;;;;34.20;20.52;;;;;;;7.69;74.32;101389.56;1691140;83;21230;-75
2021/03/24 09:50:36;;;;;;;33.35;21.37;;;;;;;7.76;74.18;101384.11;1690011;83;21668;-74
2021/03/24 09:53:22;;;;;;;40.98;22.07;;;;;;;7.83;74.03;101382.63;1659874;84;21739;-75
2021/03/24 09:56:00;;;;;;;40.15;22.85;;;;;;;7.91;73.89;101382.84;1691403;84;21648;-74
2021/03/24 09:58:49;;;;;;;40.08;22.27;;;;;;;7.97;73.72;101378.33;1692217;83;21189;-74
2021/03/24 10:01:52;;;;;;;46.88;25.40;;;;;;;8.08;73.57;101374.77;1699934;84;22153;-74
2021/03/24 10:04:42;;;;;;;45.95;28.98;;;;;;;8.08;73.57;101374.77;1683835;84;21636;-74
2021/03/24 10:07:12;;;;;;;45.25;27.55;;;;;;;8.06;73.21;101378.86;1694536;83;21185;-74
2021/03/24 10:09:42;;;;;;;;;;;;;;;8.09;73.03;101374.65;1668926;84;21207;-74
2021/03/24 10:12:27;;;;;;;;;;;;;;;8.14;72.86;101371.09;1693576;83;20278;-75
2021/03/24 10:15:21;;;;;;;39.58;24.18;;;;;;;8.20;72.73;101369.23;1702059;82;21259;-75
2021/03/24 10:17:53;;;;;;;37.30;23.55;;;;;;;8.31;72.59;101369.20;1702187;84;21183;-75
2021/03/24 10:20:28;;;;;;;50.28;26.60;;;;;;;8.35;72.44;101358.66;1702391;84;21195;-75
2021/03/24 10:23:18;;;;;;;41.68;23.75;;;;;;;8.39;72.31;101358.76;1701317;82;21151;-75
2021/03/24 10:25:58;;;;;;;34.85;21.97;;;;;;;8.41;72.15;101358.13;1702082;84;21205;-75
2021/03/24 10:28:45;;;;;;;48.78;26.87;;;;;;;8.38;71.94;101355.73;1702557;82;22206;-75
2021/03/24 10:31:15;;;;;;;47.27;29.40;;;;;;;8.45;71.82;101354.23;1695592;84;21208;-75
2021/03/24 10:33:47;;;;;;;43.92;28.77;;;;;;;8.48;71.64;101351.30;1681397;84;21163;-75
2021/03/24 10:36:39;;;;;;;74.92;37.78;;;;;;;8.49;71.42;101347.69;1702109;84;21245;-75
2021/03/24 10:39:21;;;;;;;49.80;30.85;;;;;;;8.56;71.25;101344.48;1701952;83;21707;-75
2021/03/24 10:42:07;;;;;;;59.40;32.03;;;;;;;8.69;71.02;101347.77;1701475;84;21212;-75
2021/03/24 10:45:03;;;;;;;47.62;28.80;;;;;;;8.76;70.84;101346.27;1672190;84;21119;-75
2021/03/24 10:47:46;;;;;;;39.30;24.37;;;;;;;8.86;70.60;101337.82;1702290;84;21190;-75
2021/03/24 10:50:37;;;;;;;40.85;25.77;;;;;;;8.91;70.41;101335.58;1679827;84;21174;-75
2021/03/24 10:53:16;;;;;;;;;;;;;;;8.98;70.25;101336.23;1704725;84;21128;-74
2021/03/24 10:55:43;;;;;;;43.70;26.00;;;;;;;9.10;70.08;101330.31;1702598;83;21288;-74
2021/03/24 10:58:31;;;;;;;42.62;27.95;;;;;;;9.22;69.87;101333.18;1702236;84;21144;-75
2021/03/24 11:01:20;;;;;;;49.15;29.75;;;;;;;9.26;69.66;101323.94;1702328;84;21176;-75
2021/03/24 11:04:04;;;;;;;56.65;31.77;;;;;;;9.24;69.41;101327.25;1681942;84;21079;-75
2021/03/24 11:06:45;;;;;;;60.88;33.55;;;;;;;9.34;69.25;101324.09;1701923;84;21194;-75
2021/03/24 11:09:14;;;;;;;42.40;26.57;;;;;;;9.37;69.06;101321.16;1702201;84;21291;-75
2021/03/24 11:11:54;;;;;;;40.70;26.10;;;;;;;9.41;68.85;101317.23;1702390;82;21163;-75
2021/03/24 11:14:24;;;;;;;36.98;24.45;;;;;;;9.53;68.68;101318.76;1702652;84;21488;-75
2021/03/24 11:17:05;;;;;;;41.63;25.62;;;;;;;9.59;68.46;101312.53;1702491;84;21139;-75
2021/03/24 11:19:36;;;;;;;37.63;23.87;;;;;;;9.63;68.28;101312.61;1702141;84;21164;-75
2021/03/24 11:22:35;;;;;;;41.73;26.40;;;;;;;9.68;68.09;101314.34;1702265;84;21206;-75
2021/03/24 11:25:07;;;;;;;47.20;26.95;;;;;;;9.71;67.96;101311.42;1702057;84;21192;-75
2021/03/24 11:27:53;;;;;;;59.63;30.68;;;;;;;9.76;67.76;101310.48;1702359;84;21140;-75
2021/03/24 11:30:34;;;;;;;135.88;89.52;;;;;;;9.79;67.63;101307.05;1702463;84;21183;-76
2021/03/24 11:33:20;;;;;;;72.22;37.65;;;;;;;9.77;67.45;101306.84;1702200;84;21156;-75
2021/03/24 11:36:06;;;;;;;57.45;32.98;;;;;;;9.72;67.28;101299.27;1702352;84;21180;-75
2021/03/24 11:39:06;;;;;;;44.93;27.32;;;;;;;9.67;67.11;101302.88;1701693;84;21204;-75
2021/03/24 11:41:36;;;;;;;52.60;30.20;;;;;;;9.69;66.97;101298.72;1702163;84;21148;-75
2021/03/24 11:44:18;;;;;;;51.35;29.52;;;;;;;9.66;66.79;101303.00;1702271;84;21147;-75
2021/03/24 11:46:51;;;;;;;36.95;25.68;;;;;;;9.71;66.66;101299.43;1702312;84;21163;-75
2021/03/24 11:49:43;;;;;;;38.15;25.80;;;;;;;9.84;66.55;101294.63;1702075;82;21218;-75
2021/03/24 11:52:23;;;;;;;42.23;27.35;;;;;;;9.87;66.41;101283.69;1702306;84;21194;-75
2021/03/24 11:55:13;;;;;;;78.37;48.70;;;;;;;10.01;66.31;101284.56;1701588;83;21187;-75
2021/03/24 11:57:54;;;;;;;57.25;32.83;;;;;;;10.10;66.20;101290.34;1702352;84;21187;-75
2021/03/24 12:00:54;;;;;;;69.10;35.80;;;;;;;10.16;66.05;101281.83;1703423;82;21676;-75
2021/03/24 12:03:43;;;;;;;44.30;27.30;;;;;;;10.17;65.95;101269.34;1693902;84;21916;-75
2021/03/24 12:06:43;;;;;;;61.30;34.10;;;;;;;10.21;65.81;101272.88;1682165;83;21218;-75
2021/03/24 12:09:22;;;;;;;61.63;32.23;;;;;;;10.25;65.69;101269.43;1687449;84;21704;-75
2021/03/24 12:11:49;;;;;;;40.98;28.07;;;;;;;10.25;65.56;101263.61;1700175;84;21628;-75
2021/03/24 12:14:24;;;;;;;47.40;30.62;;;;;;;10.26;65.43;101261.30;1685763;83;21163;-75
2021/03/24 12:16:55;;;;;;;69.10;37.48;;;;;;;10.21;65.34;101263.55;1683701;84;21252;-75